Time;durP1;ratioP1;P1;durP2;ratioP2;P2;SDS_P1;SDS_P2;PMS_P1;PMS_P2;Temp;Humidity;BMP_temperature;BMP_pressure;BME280_temperature;BME280_humidity;BME280_pressure;Samples;Min_cycle;Max_cycle;Signal;HPM_P1;HPM_P2
2021/11/16 00:00:34;;;;;;;28.63;14.88;;;7.10;85.60;;;;;;5058612;28;20037;-67
2021/11/16 00:03:00;;;;;;;32.15;15.32;;;7.10;84.80;;;;;;5059129;28;20037;-67
2021/11/16 00:05:26;;;;;;;23.88;13.27;;;7.10;84.70;;;;;;5059351;28;20051;-67
2021/11/16 00:07:52;;;;;;;26.98;14.55;;;7.10;84.60;;;;;;5058760;28;20115;-67
2021/11/16 00:10:18;;;;;;;26.55;14.35;;;7.10;84.70;;;;;;5060459;28;20040;-67
2021/11/16 00:12:44;;;;;;;25.55;14.27;;;7.10;84.60;;;;;;5057240;28;20499;-68
2021/11/16 00:15:10;;;;;;;25.38;14.02;;;7.10;84.50;;;;;;5059738;28;20033;-68
2021/11/16 00:17:37;;;;;;;27.40;13.95;;;7.10;84.50;;;;;;5058804;28;20078;-68
2021/11/16 00:20:06;;;;;;;27.10;13.55;;;7.10;84.50;;;;;;5059484;28;20036;-67
2021/11/16 00:22:32;;;;;;;27.05;14.45;;;7.10;84.60;;;;;;5058520;28;20040;-68
2021/11/16 00:27:30;;;;;;;29.42;14.23;;;7.10;84.60;;;;;;5058297;28;20464;-68
2021/11/16 00:29:56;;;;;;;26.98;14.38;;;7.00;84.60;;;;;;5058804;28;20532;-68
2021/11/16 00:32:22;;;;;;;26.80;13.40;;;7.10;84.80;;;;;;5058036;28;20678;-68
2021/11/16 00:34:47;;;;;;;26.13;13.98;;;7.00;84.70;;;;;;5059293;28;20098;-68
2021/11/16 00:37:13;;;;;;;24.92;13.75;;;7.00;84.70;;;;;;5057784;28;20082;-68
2021/11/16 00:39:39;;;;;;;27.23;13.60;;;7.00;84.70;;;;;;5057037;28;20134;-68
2021/11/16 00:42:04;;;;;;;26.55;14.40;;;7.00;84.80;;;;;;5057656;28;20043;-67
2021/11/16 00:44:30;;;;;;;24.02;13.80;;;7.00;84.80;;;;;;5057103;28;20777;-67
2021/11/16 00:46:56;;;;;;;23.98;13.48;;;7.00;84.80;;;;;;5057861;28;20650;-68
2021/11/16 00:49:22;;;;;;;23.20;13.38;;;7.00;84.70;;;;;;5057321;28;20071;-68
2021/11/16 00:51:47;;;;;;;24.40;13.05;;;7.00;84.80;;;;;;5057796;28;20497;-67
2021/11/16 00:54:14;;;;;;;25.13;14.07;;;7.00;84.80;;;;;;5057934;28;20079;-67
2021/11/16 00:56:40;;;;;;;24.50;12.65;;;7.00;84.80;;;;;;5057019;28;20094;-68
2021/11/16 00:59:05;;;;;;;23.90;12.48;;;7.10;84.80;;;;;;5057902;28;20024;-68
2021/11/16 01:01:31;;;;;;;23.85;12.60;;;7.00;84.60;;;;;;5058268;28;20124;-67
2021/11/16 01:03:57;;;;;;;24.77;12.50;;;7.00;84.60;;;;;;5057086;28;20060;-67
2021/11/16 01:06:23;;;;;;;23.00;12.27;;;7.00;84.60;;;;;;5057052;28;20036;-67
2021/11/16 01:08:48;;;;;;;23.40;12.95;;;7.00;84.60;;;;;;5057722;28;20709;-67
2021/11/16 01:11:14;;;;;;;21.48;12.35;;;7.10;84.60;;;;;;5057762;28;20086;-67
2021/11/16 01:13:40;;;;;;;24.38;12.93;;;7.00;84.50;;;;;;5057323;28;20049;-68
2021/11/16 01:16:05;;;;;;;24.38;12.45;;;7.00;84.50;;;;;;5057780;28;20104;-67
2021/11/16 01:18:31;;;;;;;21.20;11.80;;;6.90;84.50;;;;;;5057084;28;20388;-68
2021/11/16 01:20:57;;;;;;;23.42;12.50;;;6.90;84.50;;;;;;5057755;28;20032;-67
2021/11/16 01:23:25;;;;;;;24.38;12.93;;;6.90;84.50;;;;;;5058302;28;20037;-68
2021/11/16 01:25:51;;;;;;;24.05;12.27;;;6.90;84.50;;;;;;5057835;28;20083;-68
2021/11/16 01:28:23;;;;;;;24.05;12.32;;;6.80;84.50;;;;;;5057728;28;20040;-68
2021/11/16 01:30:51;;;;;;;22.05;12.15;;;6.90;84.70;;;;;;5057447;28;20040;-68
2021/11/16 01:33:28;;;;;;;22.40;11.75;;;6.80;84.60;;;;;;5056507;28;20045;-68
2021/11/16 01:35:54;;;;;;;25.25;13.05;;;6.80;84.70;;;;;;5057299;28;20060;-68
2021/11/16 01:38:22;;;;;;;23.88;12.98;;;6.80;84.60;;;;;;5057313;28;20124;-68
2021/11/16 01:40:49;;;;;;;24.30;12.02;;;6.90;84.60;;;;;;5057427;28;20041;-68
2021/11/16 01:43:16;;;;;;;22.75;12.30;;;6.90;84.50;;;;;;5057434;28;20135;-68
2021/11/16 01:45:42;;;;;;;21.48;11.57;;;6.90;84.50;;;;;;5057443;28;20124;-68
2021/11/16 01:48:09;;;;;;;22.45;12.13;;;6.90;84.50;;;;;;5058713;28;20120;-67
2021/11/16 01:50:36;;;;;;;22.00;12.02;;;6.90;84.50;;;;;;5056363;28;20098;-67
2021/11/16 01:53:02;;;;;;;24.77;12.38;;;6.90;84.40;;;;;;5058045;28;20029;-68
2021/11/16 01:55:28;;;;;;;26.13;13.25;;;6.90;84.40;;;;;;5058021;28;20116;-67
2021/11/16 01:57:55;;;;;;;24.70;12.77;;;6.90;84.40;;;;;;5056565;28;20175;-67
2021/11/16 02:00:35;;;;;;;23.48;13.00;;;6.90;84.40;;;;;;5058325;28;20547;-68
2021/11/16 02:03:01;;;;;;;24.80;12.73;;;6.80;84.40;;;;;;5056621;28;20077;-67
2021/11/16 02:05:40;;;;;;;24.58;12.93;;;6.80;84.50;;;;;;5057453;28;20109;-67
2021/11/16 02:08:07;;;;;;;24.23;12.18;;;6.80;84.50;;;;;;5056231;28;20033;-67
2021/11/16 02:10:33;;;;;;;22.98;12.27;;;6.80;84.40;;;;;;5056647;28;20025;-68
2021/11/16 02:12:58;;;;;;;22.92;12.20;;;6.80;84.50;;;;;;5057660;28;20031;-68
2021/11/16 02:15:24;;;;;;;23.92;12.35;;;6.80;84.50;;;;;;5056769;28;20025;-67
2021/11/16 02:17:50;;;;;;;21.17;11.05;;;6.80;84.50;;;;;;5058253;28;20442;-68
2021/11/16 02:20:17;;;;;;;22.00;12.15;;;6.80;84.60;;;;;;5058861;28;20024;-67
2021/11/16 02:22:47;;;;;;;23.75;12.20;;;6.80;84.60;;;;;;5056954;28;20143;-68
2021/11/16 02:25:13;;;;;;;24.67;12.27;;;6.70;84.60;;;;;;5056145;28;20407;-67
2021/11/16 02:27:39;;;;;;;23.17;11.60;;;6.80;84.70;;;;;;5056468;28;20149;-67
2021/11/16 02:30:06;;;;;;;22.73;10.88;;;6.80;84.60;;;;;;5057265;28;20466;-67
2021/11/16 02:32:32;;;;;;;22.45;11.60;;;6.80;84.60;;;;;;5056188;28;20136;-67
2021/11/16 02:34:59;;;;;;;19.98;11.15;;;6.70;84.50;;;;;;5056040;28;20120;-67
2021/11/16 02:37:29;;;;;;;22.75;11.02;;;6.80;84.50;;;;;;5056822;28;20132;-67
2021/11/16 02:39:55;;;;;;;21.33;10.88;;;6.70;84.50;;;;;;5063053;28;20101;-67
2021/11/16 02:42:21;;;;;;;20.38;10.80;;;6.70;84.40;;;;;;5057194;28;20055;-68
2021/11/16 02:44:47;;;;;;;20.60;10.90;;;6.70;84.40;;;;;;5057549;28;20040;-68
2021/11/16 02:47:12;;;;;;;20.27;10.32;;;6.70;84.40;;;;;;5060388;28;20404;-67
2021/11/16 02:49:38;;;;;;;20.90;10.75;;;6.70;84.60;;;;;;5061096;28;20564;-67
2021/11/16 02:52:14;;;;;;;20.35;10.95;;;6.70;84.60;;;;;;5060680;28;20028;-68
2021/11/16 02:54:41;;;;;;;21.10;11.07;;;6.70;84.60;;;;;;5059404;28;20033;-68
2021/11/16 02:57:11;;;;;;;20.55;10.65;;;6.70;84.60;;;;;;5060253;28;20036;-68
2021/11/16 02:59:37;;;;;;;20.75;11.43;;;6.70;84.50;;;;;;5059707;28;20040;-68
2021/11/16 03:02:03;;;;;;;21.83;11.68;;;6.70;84.50;;;;;;5060541;28;20072;-67
2021/11/16 03:04:33;;;;;;;22.63;11.45;;;6.70;84.60;;;;;;5061233;28;20093;-67
2021/11/16 03:07:04;;;;;;;23.23;12.60;;;6.80;84.60;;;;;;5059122;28;20044;-68
2021/11/16 03:09:32;;;;;;;22.83;11.45;;;6.70;84.60;;;;;;5060912;28;20040;-67
2021/11/16 03:11:59;;;;;;;23.50;11.95;;;6.70;84.60;;;;;;5061282;28;20032;-68
2021/11/16 03:14:26;;;;;;;22.85;11.45;;;6.80;85.30;;;;;;5060189;28;20037;-67
2021/11/16 03:16:53;;;;;;;21.08;11.27;;;6.80;84.50;;;;;;5059868;28;20737;-67
2021/11/16 03:19:18;;;;;;;23.98;12.73;;;6.70;84.40;;;;;;5060078;28;20037;-67
2021/11/16 03:21:54;;;;;;;24.27;11.75;;;6.70;84.50;;;;;;5058963;28;20047;-68
2021/11/16 03:24:20;;;;;;;20.90;11.95;;;6.80;84.60;;;;;;5060609;28;20400;-67
2021/11/16 03:26:46;;;;;;;22.00;11.82;;;6.80;84.70;;;;;;5060054;28;20044;-67
2021/11/16 03:29:12;;;;;;;21.52;11.13;;;6.70;84.60;;;;;;5060590;28;20036;-67
2021/11/16 03:31:48;;;;;;;20.10;11.15;;;6.80;84.60;;;;;;5059657;28;20039;-67
2021/11/16 03:34:13;;;;;;;23.17;11.15;;;6.80;84.60;;;;;;5059474;28;20404;-67
2021/11/16 03:36:39;;;;;;;22.17;11.35;;;6.80;84.50;;;;;;5058486;28;20087;-67
2021/11/16 03:39:05;;;;;;;22.08;11.40;;;6.80;84.40;;;;;;5059467;28;20588;-67
2021/11/16 03:41:31;;;;;;;21.98;10.82;;;6.70;84.30;;;;;;5059180;28;20460;-68
2021/11/16 03:43:57;;;;;;;22.02;11.07;;;6.70;84.20;;;;;;5060369;28;20671;-67
2021/11/16 03:46:23;;;;;;;20.60;11.07;;;6.70;84.30;;;;;;5059130;28;20041;-67
2021/11/16 03:48:49;;;;;;;24.05;11.02;;;6.70;84.50;;;;;;5057640;28;20513;-67
2021/11/16 03:51:15;;;;;;;20.35;10.05;;;6.60;84.60;;;;;;5060226;28;20041;-68
2021/11/16 03:53:41;;;;;;;22.25;11.05;;;6.60;84.70;;;;;;5059388;28;20041;-68
2021/11/16 03:56:07;;;;;;;19.67;10.30;;;6.70;85.00;;;;;;5057304;28;20530;-68
2021/11/16 03:58:33;;;;;;;20.45;10.27;;;6.70;84.90;;;;;;5058100;28;20033;-67
2021/11/16 04:01:01;;;;;;;22.15;10.63;;;6.60;84.80;;;;;;5057422;28;20028;-68
2021/11/16 04:03:31;;;;;;;21.40;10.20;;;6.70;84.90;;;;;;5059147;28;20129;-67
2021/11/16 04:05:57;;;;;;;20.30;10.70;;;6.70;84.90;;;;;;5057954;28;21327;-68
2021/11/16 04:08:23;;;;;;;21.83;10.48;;;6.70;84.90;;;;;;5058932;28;20036;-68
2021/11/16 04:10:51;;;;;;;20.45;10.82;;;6.70;84.80;;;;;;5058771;28;20059;-67
2021/11/16 04:13:17;;;;;;;19.10;10.43;;;6.80;84.70;;;;;;5059863;28;20052;-67
2021/11/16 04:15:45;;;;;;;21.17;10.38;;;6.80;84.60;;;;;;5058693;28;20045;-68
2021/11/16 04:18:11;;;;;;;22.58;11.88;;;6.80;84.60;;;;;;5058091;28;20119;-67
2021/11/16 04:20:43;;;;;;;23.38;11.20;;;6.80;84.70;;;;;;5056380;28;20513;-68
2021/11/16 04:23:11;;;;;;;19.42;10.05;;;6.80;84.80;;;;;;5058453;28;20488;-66
2021/11/16 04:25:38;;;;;;;20.55;10.48;;;6.80;84.80;;;;;;5058304;28;20798;-67
2021/11/16 04:28:08;;;;;;;22.15;11.05;;;6.80;84.80;;;;;;5057348;28;20496;-68
2021/11/16 04:30:34;;;;;;;21.65;11.20;;;6.80;84.80;;;;;;5056923;28;20029;-67
2021/11/16 04:33:01;;;;;;;29.15;16.27;;;6.90;84.80;;;;;;5057297;28;20507;-67
2021/11/16 04:35:29;;;;;;;29.13;17.48;;;6.90;84.70;;;;;;5056902;28;20451;-67
2021/11/16 04:37:58;;;;;;;29.30;13.38;;;6.90;84.70;;;;;;5058483;28;20068;-67
2021/11/16 04:40:31;;;;;;;23.08;12.70;;;6.90;84.60;;;;;;5057776;28;20083;-67
2021/11/16 04:42:59;;;;;;;24.05;11.93;;;6.90;84.60;;;;;;5037795;28;20056;-67
2021/11/16 04:45:25;;;;;;;21.55;11.40;;;6.90;84.50;;;;;;5038789;28;20060;-67
2021/11/16 04:47:57;;;;;;;20.60;10.63;;;6.90;84.50;;;;;;5038235;28;20057;-68
2021/11/16 05:03:14;;;;;;;25.15;12.02;;;7.00;84.60;;;;;;5038061;28;20032;-68
2021/11/16 05:05:39;;;;;;;22.88;11.15;;;7.00;84.50;;;;;;5037522;28;20436;-67
2021/11/16 05:08:05;;;;;;;22.02;10.60;;;7.00;84.30;;;;;;5036024;28;20084;-67
2021/11/16 05:10:31;;;;;;;21.13;11.18;;;6.90;84.20;;;;;;5035435;28;20048;-67
2021/11/16 05:12:59;;;;;;;21.58;10.25;;;6.90;84.20;;;;;;5034913;28;20119;-67
2021/11/16 05:15:25;;;;;;;19.95;10.52;;;6.90;84.20;;;;;;5036296;28;20057;-65
2021/11/16 05:17:52;;;;;;;20.90;11.43;;;6.90;84.30;;;;;;5038094;28;20032;-67
2021/11/16 05:20:19;;;;;;;21.23;10.73;;;6.90;84.50;;;;;;5036449;28;20037;-67
2021/11/16 05:22:48;;;;;;;20.02;10.43;;;6.90;84.50;;;;;;5035794;28;20129;-67
2021/11/16 05:25:14;;;;;;;24.35;14.60;;;6.90;84.50;;;;;;5036281;28;20060;-68
2021/11/16 05:27:40;;;;;;;21.05;11.50;;;6.90;84.50;;;;;;5035212;28;20057;-67
2021/11/16 05:30:09;;;;;;;22.73;11.88;;;6.90;84.50;;;;;;5035544;28;20472;-64
2021/11/16 05:32:35;;;;;;;20.50;11.48;;;6.90;84.50;;;;;;5033795;28;20404;-67
2021/11/16 05:35:02;;;;;;;20.08;11.30;;;6.90;84.50;;;;;;5036207;28;20047;-67
2021/11/16 05:37:28;;;;;;;21.42;10.73;;;6.90;84.50;;;;;;5032397;28;20113;-66
2021/11/16 05:39:54;;;;;;;20.08;10.50;;;6.90;84.50;;;;;;5032131;28;20128;-67
2021/11/16 05:42:21;;;;;;;21.67;10.98;;;6.90;84.50;;;;;;5036811;28;20045;-67
2021/11/16 05:44:52;;;;;;;19.45;10.68;;;6.90;84.50;;;;;;5036121;28;20074;-66
2021/11/16 05:47:19;;;;;;;20.55;10.90;;;6.90;84.50;;;;;;5034910;28;20041;-68
2021/11/16 05:49:44;;;;;;;19.70;10.68;;;6.90;84.50;;;;;;5034537;28;20043;-68
2021/11/16 05:52:10;;;;;;;20.17;10.15;;;6.90;84.60;;;;;;5035973;28;20240;-67
2021/11/16 05:54:36;;;;;;;19.05;10.02;;;6.90;84.40;;;;;;5036946;28;20091;-67
2021/11/16 05:57:06;;;;;;;17.58;9.82;;;6.90;84.30;;;;;;5035412;28;20393;-68
2021/11/16 05:59:33;;;;;;;19.83;9.90;;;6.90;84.30;;;;;;5035947;28;20033;-67
2021/11/16 06:02:10;;;;;;;18.60;10.32;;;6.90;84.30;;;;;;5035672;28;20041;-67
2021/11/16 06:04:36;;;;;;;18.95;9.60;;;6.90;84.30;;;;;;5036152;28;20059;-67
2021/11/16 06:07:04;;;;;;;17.00;9.30;;;6.90;84.30;;;;;;5035168;28;20037;-67
2021/11/16 06:09:31;;;;;;;17.45;9.13;;;6.90;84.30;;;;;;5036364;28;20917;-67
2021/11/16 06:12:01;;;;;;;19.02;9.75;;;6.80;84.20;;;;;;5034613;28;20156;-67
2021/11/16 06:14:28;;;;;;;19.05;9.57;;;6.90;84.30;;;;;;5036931;28;20033;-67
2021/11/16 06:16:54;;;;;;;20.58;9.88;;;6.90;84.30;;;;;;5034975;28;20057;-67
2021/11/16 06:19:23;;;;;;;18.30;9.32;;;6.80;84.30;;;;;;5036284;28;20504;-67
2021/11/16 06:21:49;;;;;;;15.90;8.90;;;6.80;84.20;;;;;;5039425;28;20037;-67
2021/11/16 06:24:15;;;;;;;17.33;8.98;;;6.80;84.20;;;;;;5040889;28;20112;-67
2021/11/16 06:26:40;;;;;;;18.48;9.23;;;6.80;84.30;;;;;;5039698;28;20030;-67
2021/11/16 06:29:07;;;;;;;17.67;8.85;;;6.80;84.50;;;;;;5041556;28;20037;-67
2021/11/16 06:31:34;;;;;;;17.23;9.77;;;6.80;84.50;;;;;;5039600;28;20033;-67
2021/11/16 06:34:03;;;;;;;14.68;8.73;;;6.80;84.60;;;;;;5041194;28;20117;-67
2021/11/16 06:36:35;;;;;;;21.52;10.65;;;6.80;84.60;;;;;;5040079;28;20037;-68
2021/11/16 06:39:08;;;;;;;18.98;9.68;;;6.80;84.50;;;;;;5036727;28;20029;-67
2021/11/16 06:41:35;;;;;;;19.25;9.82;;;6.80;84.30;;;;;;5038120;28;20421;-66
2021/11/16 06:44:01;;;;;;;17.15;9.30;;;6.80;84.30;;;;;;5039961;28;20036;-67
2021/11/16 06:46:30;;;;;;;16.00;8.88;;;6.80;84.20;;;;;;5038528;28;20061;-67
2021/11/16 06:48:59;;;;;;;14.80;8.35;;;6.70;84.10;;;;;;5039944;28;20053;-67
2021/11/16 06:51:25;;;;;;;20.20;9.73;;;6.70;84.30;;;;;;5034604;28;20041;-67
2021/11/16 06:53:51;;;;;;;20.98;9.35;;;6.70;84.40;;;;;;5039042;28;20048;-68
2021/11/16 06:56:16;;;;;;;19.70;9.27;;;6.70;84.50;;;;;;5038185;28;20060;-69
2021/11/16 06:58:42;;;;;;;16.88;8.20;;;6.70;84.50;;;;;;5037421;28;20527;-67
2021/11/16 07:01:08;;;;;;;18.75;9.25;;;6.70;84.40;;;;;;5038298;28;20052;-68
2021/11/16 07:03:34;;;;;;;18.70;10.20;;;6.70;84.30;;;;;;5039097;28;20792;-68
2021/11/16 07:06:03;;;;;;;18.83;10.05;;;6.70;84.40;;;;;;5037734;28;20029;-67
2021/11/16 07:08:31;;;;;;;19.60;9.43;;;6.70;84.50;;;;;;5039617;28;20032;-67
2021/11/16 07:11:03;;;;;;;20.13;9.70;;;6.70;85.20;;;;;;5039983;28;20044;-67
2021/11/16 07:13:28;;;;;;;17.80;8.70;;;6.70;84.80;;;;;;5037419;28;20045;-67
2021/11/16 07:15:54;;;;;;;18.73;8.82;;;6.80;84.80;;;;;;5038294;28;20037;-68
2021/11/16 07:18:20;;;;;;;17.80;9.05;;;6.80;84.80;;;;;;5039663;28;20128;-68
2021/11/16 07:20:55;;;;;;;16.38;8.52;;;6.80;84.80;;;;;;5036437;28;20503;-67
2021/11/16 07:23:21;;;;;;;18.38;9.30;;;6.80;84.70;;;;;;5035458;28;20033;-64
2021/11/16 07:25:47;;;;;;;14.50;8.27;;;6.80;84.50;;;;;;5037335;28;20036;-67
2021/11/16 07:28:12;;;;;;;15.35;8.00;;;6.90;84.50;;;;;;5038721;28;20029;-67
2021/11/16 07:30:39;;;;;;;19.83;8.88;;;6.80;84.30;;;;;;5037784;28;20249;-67
2021/11/16 07:33:14;;;;;;;15.95;8.48;;;6.90;84.40;;;;;;5043210;28;20078;-68
2021/11/16 07:35:41;;;;;;;14.18;7.55;;;6.90;84.40;;;;;;5057670;28;20151;-66
2021/11/16 07:38:11;;;;;;;12.05;6.63;;;6.90;84.20;;;;;;5060313;28;20719;-68
2021/11/16 07:40:43;;;;;;;12.65;7.15;;;6.90;84.00;;;;;;5058221;28;20423;-67
2021/11/16 07:43:18;;;;;;;13.18;6.88;;;6.90;84.00;;;;;;5059360;28;20108;-68
2021/11/16 07:45:53;;;;;;;13.35;7.07;;;6.90;84.10;;;;;;5059987;28;20453;-67
2021/11/16 07:48:22;;;;;;;15.55;8.13;;;6.90;84.00;;;;;;5059250;28;20039;-67
2021/11/16 07:50:54;;;;;;;14.65;7.40;;;6.90;84.00;;;;;;5059744;28;20106;-67
2021/11/16 07:53:37;;;;;;;14.73;7.47;;;7.00;83.90;;;;;;5059102;28;20025;-67
2021/11/16 07:56:10;;;;;;;16.48;8.23;;;7.00;83.80;;;;;;5058799;28;20112;-68
2021/11/16 07:58:48;;;;;;;15.15;8.02;;;7.00;84.00;;;;;;5059120;28;20380;-67
2021/11/16 08:04:21;;;;;;;15.32;6.70;;;7.00;83.80;;;;;;5059824;28;20249;-67
2021/11/16 08:14:46;;;;;;;7.82;5.07;;;6.90;83.40;;;;;;5057783;28;20037;-67
2021/11/16 08:17:13;;;;;;;8.68;5.55;;;7.00;83.60;;;;;;5058805;28;20459;-67
2021/11/16 08:19:41;;;;;;;12.55;6.53;;;6.90;83.80;;;;;;5058818;28;20048;-67
2021/11/16 08:22:13;;;;;;;10.98;6.47;;;7.00;83.80;;;;;;5060984;28;20044;-67
2021/11/16 08:24:42;;;;;;;12.05;5.72;;;7.00;83.70;;;;;;5059306;28;20174;-67
2021/11/16 08:27:20;;;;;;;9.63;6.03;;;7.00;83.60;;;;;;5060189;28;20123;-68
2021/11/16 08:30:04;;;;;;;8.63;5.50;;;7.00;83.30;;;;;;5058942;28;20122;-67
2021/11/16 08:32:34;;;;;;;10.25;5.60;;;7.00;83.20;;;;;;5057330;28;20051;-67
2021/11/16 08:35:03;;;;;;;12.10;5.53;;;7.00;83.20;;;;;;5059070;28;20040;-67
2021/11/16 08:37:36;;;;;;;11.85;5.80;;;7.00;83.30;;;;;;5059242;28;20469;-67
2021/11/16 08:40:12;;;;;;;10.27;5.95;;;7.00;84.10;;;;;;5058149;28;20098;-67
2021/11/16 08:42:42;;;;;;;10.50;5.55;;;7.00;83.20;;;;;;5058562;28;20064;-67
2021/11/16 08:45:14;;;;;;;7.45;4.78;;;7.00;83.30;;;;;;5065278;28;20057;-67
2021/11/16 08:47:51;;;;;;;11.00;5.97;;;7.00;83.10;;;;;;5057638;28;20493;-67
2021/11/16 08:50:45;;;;;;;10.55;6.15;;;7.00;83.10;;;;;;5058634;28;20071;-67
2021/11/16 08:53:15;;;;;;;9.40;5.90;;;7.00;82.80;;;;;;5038920;28;20025;-68
2021/11/16 08:55:42;;;;;;;10.15;6.20;;;7.00;83.00;;;;;;5036149;28;20112;-68
2021/11/16 08:58:10;;;;;;;10.25;5.93;;;7.00;83.20;;;;;;5035732;28;20523;-67
2021/11/16 09:00:46;;;;;;;11.27;6.28;;;7.10;83.30;;;;;;5037339;28;20508;-67
2021/11/16 09:03:29;;;;;;;10.52;6.25;;;7.00;83.00;;;;;;5033873;28;20255;-67
2021/11/16 09:05:58;;;;;;;10.95;6.00;;;7.00;83.20;;;;;;5037373;28;20033;-67
2021/11/16 09:08:27;;;;;;;9.10;5.63;;;7.00;83.40;;;;;;5037949;28;20021;-67
2021/11/16 09:10:59;;;;;;;8.82;5.70;;;7.00;83.30;;;;;;5039105;28;20029;-67
2021/11/16 09:13:28;;;;;;;11.57;5.90;;;7.00;82.70;;;;;;5038905;28;20304;-67
2021/11/16 09:16:04;;;;;;;12.60;6.30;;;7.00;82.80;;;;;;5037598;28;20083;-68
2021/11/16 09:18:42;;;;;;;8.80;5.05;;;7.00;82.80;;;;;;5036446;28;20119;-68
2021/11/16 09:21:11;;;;;;;8.43;5.55;;;7.00;82.90;;;;;;5036326;28;20060;-67
2021/11/16 09:23:43;;;;;;;15.77;8.07;;;7.00;83.20;;;;;;5037043;28;20029;-67
2021/11/16 09:29:01;;;;;;;9.18;5.80;;;7.00;83.30;;;;;;5038562;28;20037;-67
2021/11/16 09:31:30;;;;;;;10.25;5.90;;;7.00;83.30;;;;;;5036237;28;20057;-67
2021/11/16 09:33:59;;;;;;;10.05;5.97;;;7.00;82.90;;;;;;5037968;28;20034;-68
2021/11/16 09:36:32;;;;;;;13.02;6.38;;;7.00;82.90;;;;;;5037281;28;20061;-68
2021/11/16 09:39:05;;;;;;;9.60;5.53;;;6.90;83.00;;;;;;5037076;28;20298;-67
2021/11/16 09:41:42;;;;;;;20.73;9.55;;;6.90;83.10;;;;;;5038445;28;20492;-68
2021/11/16 09:44:11;;;;;;;76.97;26.27;;;6.90;83.10;;;;;;5039152;28;20196;-68
2021/11/16 09:46:46;;;;;;;15.80;8.10;;;7.00;83.10;;;;;;5037045;28;20032;-67
2021/11/16 09:49:14;;;;;;;11.70;7.00;;;7.00;83.10;;;;;;5038775;28;20025;-66
2021/11/16 09:51:41;;;;;;;15.70;6.78;;;7.00;83.10;;;;;;5035753;28;20140;-68
2021/11/16 09:54:09;;;;;;;14.10;6.30;;;7.10;83.20;;;;;;5037110;28;20508;-67
2021/11/16 09:56:35;;;;;;;10.93;6.15;;;7.00;83.20;;;;;;5036910;28;20065;-67
2021/11/16 09:59:02;;;;;;;10.13;5.68;;;7.00;83.20;;;;;;5036293;28;20084;-68
2021/11/16 10:01:39;;;;;;;10.50;6.28;;;7.10;83.10;;;;;;5037784;28;20038;-68
2021/11/16 10:04:22;;;;;;;10.50;6.30;;;7.10;83.30;;;;;;5036257;28;20399;-67
2021/11/16 10:06:48;;;;;;;13.50;7.18;;;7.10;83.10;;;;;;5038030;28;20048;-67
2021/11/16 10:09:14;;;;;;;9.25;5.82;;;7.10;84.00;;;;;;5038215;28;20030;-67
2021/11/16 10:11:43;;;;;;;10.52;6.03;;;7.10;83.20;;;;;;5035916;28;20040;-68
2021/11/16 10:14:11;;;;;;;10.50;5.95;;;7.10;83.10;;;;;;5036892;28;20468;-68
2021/11/16 10:16:37;;;;;;;12.18;5.75;;;7.10;83.10;;;;;;5033960;28;20025;-67
2021/11/16 10:19:03;;;;;;;10.77;6.70;;;7.10;83.10;;;;;;5035874;28;20033;-68
2021/11/16 10:21:30;;;;;;;10.07;6.25;;;7.20;82.90;;;;;;5035258;28;20033;-67
2021/11/16 10:23:59;;;;;;;10.85;6.40;;;7.10;82.60;;;;;;5035977;28;20026;-66
2021/11/16 10:26:34;;;;;;;9.80;5.88;;;7.10;82.70;;;;;;5035649;28;20132;-69
2021/11/16 10:29:01;;;;;;;8.50;4.93;;;7.10;82.60;;;;;;5035210;28;20037;-68
2021/11/16 10:31:32;;;;;;;10.68;5.13;;;7.10;82.70;;;;;;5034235;28;20523;-68
2021/11/16 10:34:00;;;;;;;8.25;4.82;;;7.10;82.80;;;;;;5037097;28;20124;-67
2021/11/16 10:36:27;;;;;;;8.40;4.75;;;7.10;82.80;;;;;;5036424;28;20025;-67
2021/11/16 10:39:00;;;;;;;8.68;5.32;;;7.10;82.80;;;;;;5037054;28;20429;-67
2021/11/16 10:41:32;;;;;;;11.43;5.47;;;7.10;82.40;;;;;;5037063;28;20493;-68
2021/11/16 10:44:03;;;;;;;9.88;5.22;;;7.10;82.30;;;;;;5037764;28;20033;-67
2021/11/16 10:46:32;;;;;;;8.20;4.93;;;7.10;82.40;;;;;;5035940;28;20103;-68
2021/11/16 10:49:01;;;;;;;11.40;5.70;;;7.10;82.40;;;;;;5037149;28;20108;-68
2021/11/16 10:51:29;;;;;;;11.25;5.85;;;7.10;82.70;;;;;;5036733;28;20029;-67
2021/11/16 10:53:56;;;;;;;9.07;5.20;;;7.10;82.80;;;;;;5035970;28;20143;-68
2021/11/16 10:56:23;;;;;;;9.43;5.50;;;7.10;82.70;;;;;;5035115;28;20412;-67
2021/11/16 10:58:50;;;;;;;8.02;4.72;;;7.10;82.80;;;;;;5036082;28;20399;-67
2021/11/16 11:01:22;;;;;;;9.77;4.72;;;7.10;82.80;;;;;;5038057;28;20077;-66
2021/11/16 11:03:51;;;;;;;9.38;5.07;;;7.10;82.90;;;;;;5035982;28;20115;-67
2021/11/16 11:06:32;;;;;;;7.88;5.03;;;7.10;82.90;;;;;;5036914;28;20032;-67
2021/11/16 11:09:06;;;;;;;8.82;5.00;;;7.20;82.80;;;;;;5041031;28;20033;-68
2021/11/16 11:11:41;;;;;;;9.27;4.50;;;7.20;82.80;;;;;;5035292;28;20041;-67
2021/11/16 11:14:33;;;;;;;9.30;5.00;;;7.20;82.80;;;;;;5041726;28;20272;-68
2021/11/16 11:17:00;;;;;;;9.05;4.32;;;7.20;82.70;;;;;;5041338;28;20033;-67
2021/11/16 11:19:34;;;;;;;6.63;4.15;;;7.20;82.60;;;;;;5040270;28;20048;-67
2021/11/16 11:25:23;;;;;;;6.93;4.40;;;7.20;82.30;;;;;;5040695;28;20038;-67
2021/11/16 11:27:43;;;;;;;8.65;4.95;;;7.20;82.50;;;;;;5039615;28;20505;-68
2021/11/16 11:30:17;;;;;;;9.18;4.55;;;7.20;82.60;;;;;;5037949;28;20167;-68
2021/11/16 11:32:45;;;;;;;6.85;4.45;;;7.10;81.90;;;;;;5039400;28;20033;-68
2021/11/16 11:35:15;;;;;;;8.20;4.63;;;7.10;82.00;;;;;;5039099;28;20038;-68
2021/11/16 11:37:44;;;;;;;7.65;4.53;;;7.10;82.30;;;;;;5038466;28;20046;-68
2021/11/16 11:40:17;;;;;;;9.73;6.28;;;7.10;82.40;;;;;;5040078;28;20036;-68
2021/11/16 11:42:56;;;;;;;20.30;12.23;;;7.00;82.30;;;;;;5040414;28;20091;-68
2021/11/16 11:45:29;;;;;;;9.45;6.15;;;7.00;82.40;;;;;;5039679;28;20128;-67
2021/11/16 11:48:01;;;;;;;9.70;5.10;;;7.00;82.60;;;;;;5039298;28;20060;-68
2021/11/16 11:50:35;;;;;;;8.45;5.20;;;7.00;82.40;;;;;;5040613;28;20504;-67
2021/11/16 11:53:04;;;;;;;8.60;5.00;;;7.00;82.40;;;;;;5040071;28;20038;-68
2021/11/16 11:55:32;;;;;;;8.60;5.30;;;6.90;82.40;;;;;;5038720;28;20040;-68
2021/11/16 11:58:01;;;;;;;8.27;5.00;;;6.90;82.50;;;;;;5039961;28;20065;-67
2021/11/16 12:00:28;;;;;;;9.93;5.30;;;6.90;82.60;;;;;;5039971;28;20025;-67
2021/11/16 12:02:54;;;;;;;8.32;4.72;;;6.80;82.70;;;;;;5039718;28;20040;-68
2021/11/16 12:05:20;;;;;;;6.60;4.47;;;6.90;83.00;;;;;;5037319;28;20048;-67
2021/11/16 12:07:47;;;;;;;8.27;4.70;;;6.80;82.90;;;;;;5036926;28;20037;-68
2021/11/16 12:10:13;;;;;;;8.30;5.18;;;6.80;82.70;;;;;;5037271;28;20033;-68
2021/11/16 12:12:39;;;;;;;7.47;4.60;;;6.80;82.70;;;;;;5035598;28;20052;-67
2021/11/16 12:15:14;;;;;;;7.35;4.20;;;6.80;83.00;;;;;;5037849;28;20397;-67
2021/11/16 12:17:55;;;;;;;10.68;5.57;;;6.80;83.10;;;;;;5036793;28;20111;-68
2021/11/16 12:20:55;;;;;;;8.13;5.00;;;6.80;83.00;;;;;;5037944;28;20029;-68
2021/11/16 12:23:42;;;;;;;7.80;4.72;;;6.80;82.90;;;;;;5039877;28;20033;-68
2021/11/16 12:26:13;;;;;;;7.90;4.90;;;6.80;82.90;;;;;;5037711;28;20033;-68
2021/11/16 12:28:39;;;;;;;10.05;5.32;;;6.80;82.90;;;;;;5038878;28;20123;-67
2021/11/16 12:31:05;;;;;;;10.75;5.38;;;6.80;82.90;;;;;;5038515;28;20505;-68
2021/11/16 12:33:39;;;;;;;6.97;4.70;;;6.80;83.10;;;;;;5038401;28;20121;-67
2021/11/16 12:36:07;;;;;;;11.27;5.60;;;6.80;83.10;;;;;;5038880;28;20028;-67
2021/11/16 12:38:53;;;;;;;12.30;6.03;;;6.80;83.10;;;;;;5038133;28;20287;-67
2021/11/16 12:41:32;;;;;;;9.50;5.65;;;6.80;83.10;;;;;;5037958;28;20410;-67
2021/11/16 12:44:01;;;;;;;8.23;5.22;;;6.80;83.10;;;;;;5039119;28;20030;-68
2021/11/16 12:46:33;;;;;;;9.90;5.85;;;6.80;83.10;;;;;;5036742;28;20029;-67
2021/11/16 12:49:00;;;;;;;9.93;5.32;;;6.80;83.30;;;;;;5037850;28;20463;-68
2021/11/16 12:51:33;;;;;;;9.27;5.47;;;6.80;83.30;;;;;;5036289;28;20049;-67
2021/11/16 12:54:20;;;;;;;9.18;5.93;;;6.90;83.30;;;;;;5038651;28;20404;-68
2021/11/16 12:56:46;;;;;;;13.00;6.43;;;6.90;83.30;;;;;;5038682;28;20056;-68
2021/11/16 12:59:34;;;;;;;9.60;6.05;;;6.90;83.40;;;;;;5037626;28;20056;-68
2021/11/16 13:02:19;;;;;;;12.13;6.93;;;6.90;83.30;;;;;;5052813;28;20033;-67
2021/11/16 13:04:44;;;;;;;10.60;5.93;;;7.00;83.30;;;;;;5057861;28;20502;-67
2021/11/16 13:07:26;;;;;;;6.80;4.90;;;7.00;83.20;;;;;;5057232;28;20036;-68
2021/11/16 13:10:18;;;;;;;11.88;4.90;;;7.00;82.80;;;;;;5058468;28;20610;-68
2021/11/16 13:12:57;;;;;;;7.07;4.75;;;7.10;82.90;;;;;;5055288;28;20059;-68
2021/11/16 13:15:27;;;;;;;8.23;4.85;;;7.10;82.50;;;;;;5056552;28;20123;-65
2021/11/16 13:18:11;;;;;;;9.75;5.57;;;7.00;82.60;;;;;;5058108;28;20082;-68
2021/11/16 13:20:36;;;;;;;8.48;4.93;;;7.10;82.60;;;;;;5057784;28;20064;-67
2021/11/16 13:23:14;;;;;;;5.70;4.72;;;7.10;82.60;;;;;;5058062;28;20602;-68
2021/11/16 13:25:52;;;;;;;7.30;4.63;;;7.10;82.10;;;;;;5058551;28;20045;-67
2021/11/16 13:31:07;;;;;;;8.38;4.28;;;7.10;82.20;;;;;;5057347;28;21627;-67